createdAt,value
2019-02-03T07:20:34.475Z,0.70
2019-02-03T07:25:38.527Z,0.80
2019-02-03T07:30:42.319Z,0.80
2019-02-03T07:35:46.035Z,0.80
2019-02-03T07:40:49.928Z,0.80
2019-02-03T07:45:53.915Z,0.90
2019-02-03T07:50:57.703Z,1.00
2019-02-03T07:56:01.938Z,1.00
2019-02-03T08:01:05.763Z,1.00
2019-02-03T08:06:09.828Z,0.90
2019-02-03T08:11:13.711Z,1.00
2019-02-03T08:16:17.550Z,1.00
2019-02-03T08:21:21.331Z,1.00
2019-02-03T08:26:25.119Z,1.00
2019-02-03T08:31:29.499Z,0.90
2019-02-03T08:36:33.308Z,0.80
2019-02-03T08:41:37.166Z,0.80
2019-02-03T08:46:41.038Z,0.80
2019-02-03T08:51:44.784Z,0.70
2019-02-03T08:56:48.865Z,0.70
2019-02-03T09:01:52.713Z,0.80
2019-02-03T09:06:57.854Z,0.80
2019-02-03T09:12:02.002Z,0.80
2019-02-03T09:17:05.915Z,0.80
2019-02-03T09:22:09.807Z,0.90
2019-02-03T09:27:13.544Z,1.00
2019-02-03T09:32:17.311Z,1.00
2019-02-03T09:37:21.158Z,1.00
2019-02-03T09:42:25.454Z,1.00
2019-02-03T09:47:29.246Z,1.00
2019-02-03T09:52:32.985Z,1.10
2019-02-03T09:57:36.788Z,1.10
2019-02-03T10:02:40.611Z,1.20
2019-02-03T10:07:44.691Z,1.20
2019-02-03T10:12:48.520Z,1.20
2019-02-03T10:17:52.891Z,1.20
2019-02-03T10:22:56.628Z,1.20
2019-02-03T10:28:00.698Z,1.30
2019-02-03T10:33:05.624Z,1.30
2019-02-03T10:38:09.647Z,1.30
2019-02-03T10:43:13.624Z,1.30
2019-02-03T10:48:17.613Z,1.30
2019-02-03T10:53:21.674Z,1.30
2019-02-03T10:58:25.791Z,1.40
2019-02-03T11:03:29.661Z,1.40
2019-02-03T11:08:33.434Z,1.50
2019-02-03T11:13:37.240Z,1.50
2019-02-03T11:18:41.103Z,1.50
2019-02-03T11:23:45.126Z,1.50
2019-02-03T11:28:49.197Z,1.40
2019-02-03T11:33:53.730Z,1.50
2019-02-03T11:38:58.100Z,1.50
2019-02-03T11:44:02.155Z,1.50
2019-02-03T11:49:06.224Z,1.50
2019-02-03T11:54:10.595Z,1.40
2019-02-03T11:59:14.950Z,2.50
2019-02-03T12:04:19.309Z,1.40
2019-02-03T12:09:23.493Z,1.40
2019-02-03T12:14:27.916Z,1.40
2019-02-03T12:19:32.301Z,1.40
2019-02-03T12:24:36.624Z,1.40
2019-02-03T12:29:40.915Z,1.40
2019-02-03T12:34:45.093Z,1.30
2019-02-03T12:39:49.345Z,1.40
2019-02-03T12:44:53.896Z,1.40
2019-02-03T12:49:57.867Z,1.40
2019-02-03T12:55:01.806Z,1.40
2019-02-03T13:00:09.760Z,1.40
2019-02-03T13:05:15.709Z,1.40
2019-02-03T13:10:21.931Z,1.30
2019-02-03T13:15:35.055Z,1.30
2019-02-03T13:20:42.599Z,1.30
2019-02-03T13:25:46.199Z,1.30
2019-02-03T13:30:51.345Z,1.30
2019-02-03T13:35:55.677Z,1.30
2019-02-03T13:40:59.930Z,1.30
2019-02-03T13:46:04.879Z,1.30
2019-02-03T13:51:09.067Z,1.30
2019-02-03T13:56:13.865Z,1.30
2019-02-03T14:01:17.999Z,1.30
2019-02-03T14:06:22.207Z,1.20
2019-02-03T14:11:26.539Z,1.30
2019-02-03T14:16:31.234Z,1.30
2019-02-03T14:21:35.876Z,1.20
2019-02-03T14:26:40.147Z,1.30
2019-02-03T14:31:44.418Z,1.20
2019-02-03T14:36:48.680Z,1.20
2019-02-03T14:41:52.866Z,1.30
2019-02-03T14:46:56.985Z,1.20
2019-02-03T14:52:03.111Z,1.20
2019-02-03T14:57:07.423Z,1.20
2019-02-03T15:02:11.553Z,1.20
2019-02-03T15:07:15.506Z,1.20
2019-02-03T15:12:19.957Z,1.10
2019-02-03T15:17:23.982Z,1.10
2019-02-03T15:22:28.030Z,1.10
2019-02-03T15:27:32.123Z,1.10
2019-02-03T15:32:36.430Z,1.00
2019-02-03T15:37:40.923Z,1.00
2019-02-03T15:42:45.125Z,1.00
2019-02-03T15:47:49.655Z,0.90
2019-02-03T15:52:54.146Z,1.00
2019-02-03T15:57:58.487Z,1.00
2019-02-03T16:03:03.375Z,0.90
2019-02-03T16:08:07.990Z,0.90
2019-02-03T16:13:12.191Z,0.90
2019-02-03T16:18:16.274Z,0.90
2019-02-03T16:23:20.546Z,0.80
2019-02-03T16:28:24.742Z,0.80
2019-02-03T16:33:28.911Z,0.80
2019-02-03T16:38:33.071Z,0.90
2019-02-03T16:43:48.444Z,0.90
2019-02-03T16:48:43.618Z,0.80
2019-02-03T16:53:47.792Z,0.80
2019-02-03T16:58:51.888Z,0.80
2019-02-03T17:03:56.011Z,0.80
2019-02-03T17:09:00.199Z,0.80
2019-02-03T17:14:04.537Z,0.80
2019-02-03T17:19:09.086Z,0.70
2019-02-03T17:24:13.442Z,0.70
2019-02-03T17:29:17.519Z,0.70
2019-02-03T17:34:21.742Z,0.70
2019-02-03T17:39:25.821Z,0.70
2019-02-03T17:44:30.004Z,0.70
2019-02-03T17:49:34.105Z,0.70
2019-02-03T17:54:38.130Z,0.70
2019-02-03T17:59:42.157Z,0.70
2019-02-03T18:04:46.289Z,0.70
2019-02-03T18:09:50.454Z,0.70
2019-02-03T18:14:54.534Z,0.70
2019-02-03T18:19:59.011Z,0.70
2019-02-03T18:25:03.234Z,0.70
2019-02-03T18:30:11.755Z,0.70
2019-02-03T18:35:15.951Z,0.70
2019-02-03T18:40:20.506Z,0.70
2019-02-03T18:45:25.666Z,0.70
2019-02-03T18:50:29.888Z,0.70
2019-02-03T18:55:35.493Z,0.70
2019-02-03T19:00:39.871Z,0.70
2019-02-03T19:05:44.454Z,0.70
2019-02-03T19:10:48.575Z,0.70
2019-02-03T19:15:52.985Z,0.70
2019-02-03T19:20:57.095Z,0.70
2019-02-03T19:26:01.196Z,0.70
2019-02-03T19:31:05.392Z,0.70
2019-02-03T19:36:09.608Z,0.70
2019-02-03T19:41:13.775Z,0.70
2019-02-03T19:46:17.834Z,0.70
2019-02-03T19:51:21.961Z,0.70
2019-02-03T19:56:26.412Z,0.70
2019-02-03T20:01:30.475Z,0.70
2019-02-03T20:06:34.602Z,0.70
2019-02-03T20:11:38.647Z,0.70
2019-02-03T20:16:42.743Z,0.70
2019-02-03T20:21:46.802Z,0.70
2019-02-03T20:26:51.507Z,0.70
2019-02-03T20:31:55.586Z,0.70
2019-02-03T20:36:59.803Z,0.70
2019-02-03T20:42:03.787Z,0.70
2019-02-03T20:47:07.943Z,0.70
2019-02-03T20:52:12.115Z,0.70
2019-02-03T20:57:16.106Z,0.60
2019-02-03T21:02:20.226Z,0.60
2019-02-03T21:07:24.431Z,0.70
2019-02-03T21:12:28.867Z,0.70
2019-02-03T21:17:32.908Z,0.60
2019-02-03T21:22:37.066Z,0.60
2019-02-03T21:27:41.598Z,0.60
2019-02-03T21:32:48.514Z,0.60
2019-02-03T21:37:52.922Z,0.60
2019-02-03T21:42:57.097Z,0.60
2019-02-03T21:48:01.284Z,0.60
2019-02-03T21:53:05.705Z,0.60
2019-02-03T21:58:10.065Z,0.60
2019-02-03T22:03:14.068Z,0.50
2019-02-03T22:08:18.577Z,0.50
2019-02-03T22:13:22.799Z,0.50
2019-02-03T22:18:26.878Z,0.40
2019-02-03T22:23:31.106Z,0.40
2019-02-03T22:28:35.239Z,0.30
2019-02-03T22:33:39.549Z,0.30
2019-02-03T22:38:43.860Z,0.10
2019-02-03T22:43:48.251Z,0.00
2019-02-03T22:48:52.363Z,-0.20
2019-02-03T22:53:56.389Z,-0.30
2019-02-03T22:59:00.721Z,-0.30
2019-02-03T23:04:14.228Z,-0.40
2019-02-03T23:09:30.254Z,-0.60
2019-02-03T23:14:34.340Z,-0.60
2019-02-03T23:19:38.522Z,-0.60
2019-02-03T23:24:42.478Z,-0.70
2019-02-03T23:29:46.456Z,-0.80
2019-02-03T23:34:50.403Z,-0.80
2019-02-03T23:39:54.415Z,-0.90
2019-02-03T23:44:58.291Z,-0.90
2019-02-03T23:50:02.359Z,-0.90
2019-02-03T23:55:06.452Z,-1.00
